Time;durP1;ratioP1;P1;durP2;ratioP2;P2;SDS_P1;SDS_P2;PMS_P1;PMS_P2;Temp;Humidity;BMP_temperature;BMP_pressure;BME280_temperature;BME280_humidity;BME280_pressure;Samples;Min_cycle;Max_cycle;Signal;HPM_P1;HPM_P2
2023/04/28 00:00:29;;;;;;;25.27;11.43;;;;;;;7.04;75.10;100947.56;1445489;89;21296;-83
2023/04/28 00:02:56;;;;;;;28.27;14.57;;;;;;;7.00;75.18;100947.79;1443241;89;22286;-80
2023/04/28 00:05:23;;;;;;;30.23;13.90;;;;;;;6.99;75.13;100943.94;1445673;89;21445;-82
2023/04/28 00:07:50;;;;;;;19.27;11.40;;;;;;;6.96;75.09;100942.84;1445254;90;21510;-82
2023/04/28 00:10:16;;;;;;;21.93;11.07;;;;;;;6.94;74.87;100950.88;1449494;89;21488;-80
2023/04/28 00:12:44;;;;;;;26.17;10.87;;;;;;;6.90;75.07;100953.83;1448275;90;22323;-81
2023/04/28 00:15:12;;;;;;;20.00;10.03;;;;;;;6.87;75.03;100956.20;1454683;90;21466;-82
2023/04/28 00:17:38;;;;;;;20.60;10.17;;;;;;;6.84;75.04;100958.22;1445839;90;21377;-81
2023/04/28 00:20:06;;;;;;;24.00;10.63;;;;;;;6.84;75.10;100951.64;1456206;89;21532;-81
2023/04/28 00:22:33;;;;;;;22.97;10.33;;;;;;;6.84;75.25;100960.84;1460195;89;21407;-79
2023/04/28 00:24:59;;;;;;;26.17;10.77;;;;;;;6.81;75.25;100957.96;1461412;89;22330;-82
2023/04/28 00:27:25;;;;;;;22.77;11.83;;;;;;;6.80;74.99;100960.72;1438785;90;21415;-80
2023/04/28 00:29:52;;;;;;;20.37;11.10;;;;;;;6.78;74.85;100957.70;1464290;89;21689;-81
2023/04/28 00:32:19;;;;;;;26.03;12.00;;;;;;;6.78;75.12;100960.33;1455175;89;21347;-80
2023/04/28 00:34:47;;;;;;;23.60;11.17;;;;;;;6.78;75.13;100959.02;1460509;89;21310;-80
2023/04/28 00:37:13;;;;;;;20.60;11.67;;;;;;;6.75;76.17;100959.72;1459603;89;21450;-80
2023/04/28 00:39:40;;;;;;;22.03;10.90;;;;;;;6.72;76.00;100955.52;1458893;89;22338;-81
2023/04/28 00:42:06;;;;;;;20.73;10.73;;;;;;;6.70;76.06;100952.17;1434831;89;21339;-82
2023/04/28 00:44:32;;;;;;;21.00;10.33;;;;;;;6.67;75.81;100948.42;1443851;89;21429;-82
2023/04/28 00:46:59;;;;;;;21.73;11.03;;;;;;;6.67;75.88;100953.68;1456771;89;21570;-82
2023/04/28 00:49:25;;;;;;;20.87;10.80;;;;;;;6.66;76.27;100949.86;1459968;89;21376;-82
2023/04/28 00:51:51;;;;;;;19.63;10.27;;;;;;;6.64;76.43;100947.80;1455026;89;21480;-82
2023/04/28 00:54:18;;;;;;;24.20;12.23;;;;;;;6.58;76.39;100949.08;1445316;89;22350;-83
2023/04/28 00:56:44;;;;;;;23.87;11.33;;;;;;;6.52;76.31;100948.20;1451481;89;21562;-81
2023/04/28 00:59:11;;;;;;;23.20;11.97;;;;;;;6.44;77.04;100948.73;1452825;89;21355;-81
2023/04/28 01:01:37;;;;;;;21.50;10.90;;;;;;;6.38;76.28;100947.02;1456645;89;21546;-81
2023/04/28 01:04:03;;;;;;;19.20;10.90;;;;;;;6.27;77.90;100949.95;1442896;89;21435;-81
2023/04/28 01:06:31;;;;;;;22.17;12.63;;;;;;;6.27;77.90;100949.95;1453795;89;21363;-80
2023/04/28 01:08:57;;;;;;;18.13;10.27;;;;;;;6.23;77.76;100956.34;1457720;89;21406;-82
2023/04/28 01:11:23;;;;;;;22.40;11.13;;;;;;;6.13;78.39;100954.02;1457333;89;22332;-81
2023/04/28 01:13:51;;;;;;;19.27;10.93;;;;;;;6.13;78.39;100954.02;1451428;89;21416;-82
2023/04/28 01:16:17;;;;;;;19.07;10.73;;;;;;;6.05;78.46;100958.95;1457454;89;21347;-81
2023/04/28 01:18:47;;;;;;;23.47;10.60;;;;;;;5.98;78.03;100947.16;1458369;89;22408;-83
2023/04/28 01:21:14;;;;;;;20.47;10.33;;;;;;;5.98;78.03;100947.16;1445250;89;22427;-82
2023/04/28 01:23:40;;;;;;;17.20;10.77;;;;;;;5.97;77.66;100951.58;1445420;90;21555;-83
2023/04/28 01:26:06;;;;;;;22.97;12.00;;;;;;;5.97;77.66;100951.58;1431066;90;21347;-81
2023/04/28 01:28:32;;;;;;;21.00;11.13;;;;;;;6.02;78.49;100956.53;1458387;90;22111;-80
2023/04/28 01:30:58;;;;;;;16.77;10.70;;;;;;;6.00;79.67;100958.42;1446150;90;21414;-82
2023/04/28 01:33:24;;;;;;;19.03;10.43;;;;;;;5.97;80.50;100958.15;1448836;90;22183;-83
2023/04/28 01:35:50;;;;;;;18.80;10.87;;;;;;;5.92;79.84;100957.58;1443914;89;22059;-82
2023/04/28 01:38:17;;;;;;;21.20;10.27;;;;;;;5.88;80.02;100960.90;1445853;89;22169;-82
2023/04/28 01:40:43;;;;;;;19.87;10.50;;;;;;;5.85;81.55;100954.55;1445588;89;22029;-82
2023/04/28 01:43:09;;;;;;;23.17;10.53;;;;;;;5.77;81.21;100957.32;1446839;90;23137;-83
2023/04/28 01:45:35;;;;;;;18.57;10.17;;;;;;;5.77;81.21;100957.32;1444777;89;22286;-83
2023/04/28 01:48:01;;;;;;;19.63;10.13;;;;;;;5.74;81.22;100965.41;1453211;90;22177;-83
2023/04/28 01:50:27;;;;;;;20.30;12.57;;;;;;;5.71;81.04;100962.52;1445345;90;21473;-84
2023/04/28 01:52:53;;;;;;;25.67;11.37;;;;;;;5.71;80.79;100962.99;1447721;89;22148;-82
2023/04/28 01:55:20;;;;;;;20.93;11.63;;;;;;;5.69;81.82;100959.62;1450006;89;22066;-81
2023/04/28 01:57:46;;;;;;;18.67;9.97;;;;;;;5.66;83.31;100956.72;1457075;89;22030;-82
2023/04/28 02:00:13;;;;;;;17.00;9.93;;;;;;;5.62;84.46;100963.14;1448155;89;23075;-81
2023/04/28 02:02:39;;;;;;;18.47;9.93;;;;;;;5.55;84.33;100960.53;1449773;90;21318;-80
2023/04/28 02:05:07;;;;;;;19.83;9.33;;;;;;;5.54;83.85;100960.17;1447230;90;22226;-81
2023/04/28 02:07:33;;;;;;;16.67;9.20;;;;;;;5.53;83.74;100960.66;1454492;89;22110;-81
2023/04/28 02:09:59;;;;;;;20.23;10.47;;;;;;;5.53;84.24;100963.76;1447859;89;23261;-81
2023/04/28 02:12:26;;;;;;;22.10;11.57;;;;;;;5.54;83.89;100969.37;1433504;90;22242;-81
2023/04/28 02:14:52;;;;;;;18.93;10.33;;;;;;;5.53;84.11;100970.32;1435611;90;22110;-80
2023/04/28 02:17:18;;;;;;;19.43;11.37;;;;;;;5.53;83.64;100965.07;1446769;90;22081;-81
2023/04/28 02:19:44;;;;;;;17.20;10.40;;;;;;;5.53;83.64;100965.07;1437413;90;22508;-81
2023/04/28 02:22:11;;;;;;;21.53;10.80;;;;;;;5.53;84.68;100966.38;1466032;89;22159;-81
2023/04/28 02:24:37;;;;;;;24.50;10.63;;;;;;;5.51;84.92;100965.63;1453107;89;22153;-81
2023/04/28 02:27:05;;;;;;;17.83;10.20;;;;;;;5.48;86.02;100972.41;1462223;89;22103;-81
2023/04/28 02:29:31;;;;;;;16.63;9.43;;;;;;;5.46;85.94;100967.72;1453661;89;23214;-81
2023/04/28 02:31:57;;;;;;;17.13;9.70;;;;;;;5.45;85.17;100969.50;1456052;89;22220;-81
2023/04/28 02:34:24;;;;;;;16.80;9.57;;;;;;;5.43;85.54;100963.03;1444221;89;22181;-82
2023/04/28 02:36:50;;;;;;;16.13;9.90;;;;;;;5.45;85.84;100968.67;1455587;89;23054;-82
2023/04/28 02:39:16;;;;;;;15.93;10.33;;;;;;;5.45;86.50;100972.61;1454688;89;22107;-83
2023/04/28 02:41:42;;;;;;;21.20;12.33;;;;;;;5.42;85.41;100969.23;1462216;89;22138;-83
2023/04/28 02:44:08;;;;;;;18.93;10.70;;;;;;;5.42;85.50;100977.11;1460801;89;22246;-82
2023/04/28 02:46:34;;;;;;;21.43;12.20;;;;;;;5.38;85.44;100976.09;1454221;89;23064;-84
2023/04/28 02:49:01;;;;;;;16.43;10.13;;;;;;;5.33;84.96;100977.72;1445602;89;22302;-84
2023/04/28 02:51:27;;;;;;;16.87;11.10;;;;;;;5.30;85.64;100979.23;1462811;89;22634;-83
2023/04/28 02:53:54;;;;;;;20.67;11.07;;;;;;;5.25;87.25;100972.59;1443910;89;22129;-81
2023/04/28 02:56:20;;;;;;;19.37;11.60;;;;;;;5.22;87.00;100974.95;1454510;89;22132;-83
2023/04/28 02:58:46;;;;;;;20.80;11.63;;;;;;;5.19;86.80;100973.84;1449084;89;22281;-83
2023/04/28 03:01:12;;;;;;;20.67;10.30;;;;;;;5.17;86.58;100980.96;1438294;89;22336;-84
2023/04/28 03:03:39;;;;;;;21.37;10.63;;;;;;;5.14;87.18;100977.22;1458815;89;23145;-84
2023/04/28 03:06:05;;;;;;;15.90;9.83;;;;;;;5.13;86.78;100976.39;1456595;89;22051;-84
2023/04/28 03:08:31;;;;;;;19.80;10.77;;;;;;;5.13;86.61;100986.88;1451582;89;22115;-83
2023/04/28 03:10:58;;;;;;;17.00;10.57;;;;;;;5.13;86.16;100983.42;1449503;89;22184;-79
2023/04/28 03:13:24;;;;;;;17.23;10.43;;;;;;;5.11;85.98;100982.67;1442706;89;23085;-80
2023/04/28 03:15:51;;;;;;;19.20;10.80;;;;;;;5.01;86.06;100981.59;1461371;89;22115;-81
2023/04/28 03:18:17;;;;;;;18.47;11.30;;;;;;;5.01;86.06;100981.59;1449291;89;22258;-81
2023/04/28 03:20:43;;;;;;;32.87;13.57;;;;;;;4.94;86.54;100988.52;1439233;89;22205;-80
2023/04/28 03:23:10;;;;;;;32.57;11.20;;;;;;;4.84;86.80;100984.81;1456800;89;22959;-82
2023/04/28 03:25:36;;;;;;;23.20;11.90;;;;;;;4.87;86.93;100993.80;1456039;89;21845;-82
2023/04/28 03:28:02;;;;;;;21.60;11.90;;;;;;;4.87;86.93;100993.80;1415408;89;22764;-82
2023/04/28 03:30:28;;;;;;;17.57;10.27;;;;;;;4.88;87.77;100991.53;1428003;89;22554;-80
2023/04/28 03:32:54;;;;;;;17.83;10.27;;;;;;;4.90;88.12;101001.95;1439756;89;22242;-82
2023/04/28 03:35:21;;;;;;;18.13;10.57;;;;;;;4.89;87.38;100996.30;1454560;89;22123;-81
2023/04/28 03:37:47;;;;;;;15.50;9.53;;;;;;;4.89;87.38;100996.30;1461771;89;22160;-81
2023/04/28 03:40:13;;;;;;;20.27;11.87;;;;;;;4.94;88.07;101005.57;1451866;89;22025;-81
2023/04/28 03:42:40;;;;;;;20.43;12.60;;;;;;;4.94;88.78;101004.73;1460901;89;22110;-82
2023/04/28 03:45:08;;;;;;;20.97;10.87;;;;;;;4.94;88.97;101005.57;1458319;89;22041;-82
2023/04/28 03:47:34;;;;;;;17.27;10.80;;;;;;;4.96;89.62;101010.26;1458843;89;22222;-83
2023/04/28 03:50:00;;;;;;;18.23;11.13;;;;;;;4.98;89.24;101008.39;1455313;89;22951;-83
2023/04/28 03:52:27;;;;;;;21.73;11.10;;;;;;;5.02;89.65;101012.12;1431793;89;22101;-84
2023/04/28 03:54:53;;;;;;;21.90;10.67;;;;;;;5.06;89.05;101007.05;1450394;89;22264;-84
2023/04/28 03:57:20;;;;;;;15.33;9.47;;;;;;;5.12;89.27;101013.20;1458872;89;23137;-83
2023/04/28 03:59:46;;;;;;;16.23;10.30;;;;;;;5.17;89.60;101011.14;1460001;89;22149;-83
2023/04/28 04:02:12;;;;;;;14.60;10.43;;;;;;;5.21;89.50;101013.95;1461051;89;22093;-83
2023/04/28 04:04:38;;;;;;;17.73;10.37;;;;;;;5.23;89.71;101015.16;1456750;89;22366;-87
2023/04/28 04:07:05;;;;;;;16.10;11.10;;;;;;;5.23;89.40;101020.40;1452469;89;23012;-86
2023/04/28 04:09:31;;;;;;;20.37;11.20;;;;;;;5.24;89.90;101020.31;1462170;89;22242;-86
2023/04/28 04:11:57;;;;;;;23.27;11.83;;;;;;;5.24;89.81;101022.94;1462572;89;22014;-87
2023/04/28 04:14:25;;;;;;;23.90;12.47;;;;;;;5.27;89.21;101024.53;1457830;89;22982;-87
2023/04/28 04:16:51;;;;;;;20.47;13.57;;;;;;;5.33;89.43;101023.66;1458418;89;23131;-86
2023/04/28 04:19:17;;;;;;;21.07;13.00;;;;;;;5.41;89.47;101027.94;1457778;89;22125;-86
2023/04/28 04:21:43;;;;;;;28.33;12.60;;;;;;;5.52;89.04;101034.26;1458507;89;22206;-85
2023/04/28 04:24:10;;;;;;;22.23;12.00;;;;;;;5.64;88.42;101030.85;1457875;89;22174;-85
2023/04/28 04:26:36;;;;;;;19.60;11.83;;;;;;;5.76;87.97;101032.66;1458516;89;21354;-84
2023/04/28 04:29:02;;;;;;;23.73;13.00;;;;;;;5.87;87.81;101038.05;1462446;89;22147;-84
2023/04/28 04:31:28;;;;;;;22.83;12.60;;;;;;;6.00;87.41;101033.30;1457583;89;21377;-82
2023/04/28 04:33:55;;;;;;;19.97;11.93;;;;;;;6.00;87.41;101033.30;1461107;89;21532;-84
2023/04/28 04:36:21;;;;;;;18.90;11.60;;;;;;;6.13;86.96;101040.73;1457780;89;22264;-84
2023/04/28 04:38:47;;;;;;;23.53;12.93;;;;;;;6.21;87.22;101042.34;1460185;89;21421;-83
2023/04/28 04:41:14;;;;;;;22.97;12.63;;;;;;;6.29;87.35;101038.72;1453619;89;21628;-84
2023/04/28 04:43:40;;;;;;;22.20;11.60;;;;;;;6.39;87.71;101046.84;1461770;89;21421;-84
2023/04/28 04:46:06;;;;;;;27.10;11.90;;;;;;;6.49;87.71;101044.41;1455272;89;22404;-84
2023/04/28 04:48:33;;;;;;;25.27;12.50;;;;;;;6.58;87.58;101043.77;1450112;89;22347;-84
2023/04/28 04:51:00;;;;;;;26.50;12.37;;;;;;;6.68;87.35;101044.82;1464527;89;21355;-85
2023/04/28 04:53:26;;;;;;;33.37;13.10;;;;;;;6.82;86.63;101053.06;1462722;89;21385;-86
2023/04/28 04:55:52;;;;;;;20.53;12.67;;;;;;;6.92;85.72;101052.77;1460250;89;21450;-86
2023/04/28 04:58:18;;;;;;;29.80;13.87;;;;;;;7.04;85.20;101048.89;1457301;89;21532;-85
2023/04/28 05:00:44;;;;;;;22.50;13.10;;;;;;;7.14;84.60;101050.77;1462104;89;21421;-83
2023/04/28 05:03:11;;;;;;;27.37;11.80;;;;;;;7.24;84.12;101053.09;1464740;89;21464;-83
2023/04/28 05:05:37;;;;;;;23.07;10.80;;;;;;;7.33;83.04;101053.38;1457693;89;21296;-83
2023/04/28 05:08:04;;;;;;;19.03;12.03;;;;;;;7.41;82.29;101047.08;1443114;89;21420;-85
2023/04/28 05:10:31;;;;;;;25.73;12.17;;;;;;;7.48;81.98;101053.59;1455901;89;22283;-84
2023/04/28 05:12:58;;;;;;;20.37;9.73;;;;;;;7.59;82.03;101054.10;1450179;89;21539;-82
2023/04/28 05:15:24;;;;;;;20.70;10.13;;;;;;;7.72;81.75;101056.69;1443818;89;21333;-82
2023/04/28 05:17:51;;;;;;;19.87;10.83;;;;;;;7.85;81.22;101054.80;1454681;89;22442;-84
2023/04/28 05:20:17;;;;;;;28.23;14.17;;;;;;;7.98;80.95;101058.20;1461208;89;21369;-84
2023/04/28 05:22:43;;;;;;;33.70;14.53;;;;;;;8.12;80.67;101065.92;1453990;89;21414;-83
2023/04/28 05:25:09;;;;;;;54.53;28.03;;;;;;;8.23;79.84;101060.29;1460536;89;21428;-81
2023/04/28 05:27:40;;;;;;;57.47;31.40;;;;;;;8.33;79.17;101058.16;1457570;89;21407;-82
2023/04/28 05:30:07;;;;;;;53.73;29.17;;;;;;;8.42;78.47;101063.23;1455833;89;21509;-80
2023/04/28 05:32:34;;;;;;;41.47;20.50;;;;;;;8.52;78.49;101068.66;1437738;89;21480;-80
2023/04/28 05:35:01;;;;;;;29.00;15.30;;;;;;;8.60;78.17;101058.33;1451328;89;21547;-80
2023/04/28 05:37:28;;;;;;;21.17;11.77;;;;;;;8.69;77.69;101060.73;1436364;89;21369;-80
2023/04/28 05:39:54;;;;;;;23.07;12.00;;;;;;;8.79;77.03;101063.02;1451577;89;21532;-80
2023/04/28 05:42:20;;;;;;;26.33;13.17;;;;;;;8.88;76.53;101066.25;1454925;89;22881;-80
2023/04/28 05:44:47;;;;;;;22.67;13.67;;;;;;;8.95;75.59;101078.02;1460967;89;21457;-81
2023/04/28 05:47:13;;;;;;;18.60;10.17;;;;;;;9.04;75.44;101073.81;1440574;89;21891;-82
2023/04/28 05:49:39;;;;;;;22.70;11.53;;;;;;;9.13;74.64;101073.08;1453047;89;22462;-83
2023/04/28 05:56:07;;;;;;;20.27;9.97;;;;;;;9.30;72.85;101078.33;1441854;90;21414;-82
2023/04/28 05:58:33;;;;;;;23.00;10.67;;;;;;;9.39;70.78;101080.70;1455430;89;21406;-82
2023/04/28 06:01:02;;;;;;;21.97;10.10;;;;;;;9.44;70.63;101079.38;1436599;89;21422;-82
2023/04/28 06:03:29;;;;;;;20.40;10.20;;;;;;;9.53;70.01;101076.95;1456875;89;22427;-82
2023/04/28 06:10:34;;;;;;;13.30;7.43;;;;;;;9.63;66.70;101071.26;1461435;89;21361;-82
2023/04/28 06:13:03;;;;;;;17.63;7.80;;;;;;;9.82;66.76;101077.20;1448657;89;21631;-84
2023/04/28 06:15:29;;;;;;;10.00;7.07;;;;;;;9.91;65.51;101071.98;1455486;89;21510;-82
2023/04/28 06:18:23;;;;;;;14.53;7.90;;;;;;;9.99;65.27;101073.16;1458237;89;21355;-83
2023/04/28 06:20:32;;;;;;;13.57;8.23;;;;;;;10.00;64.19;101076.16;1450650;89;22294;-82
2023/04/28 06:22:58;;;;;;;13.73;8.00;;;;;;;10.00;64.59;101075.66;1452707;89;22330;-82
2023/04/28 06:25:24;;;;;;;15.23;8.37;;;;;;;10.00;64.26;101079.62;1458890;89;21393;-82
2023/04/28 06:28:06;;;;;;;15.37;8.83;;;;;;;9.98;64.30;101080.23;1456756;89;21540;-80
2023/04/28 06:30:33;;;;;;;19.27;9.43;;;;;;;10.01;64.59;101085.75;1453150;89;21308;-83
2023/04/28 06:33:00;;;;;;;15.37;9.93;;;;;;;9.99;64.50;101091.67;1453529;89;21523;-82
2023/04/28 06:35:29;;;;;;;15.73;9.13;;;;;;;9.98;64.28;101085.52;1456184;89;21376;-82
2023/04/28 06:37:55;;;;;;;17.30;9.47;;;;;;;10.06;64.53;101091.50;1453153;89;21419;-82
2023/04/28 06:40:21;;;;;;;13.83;8.47;;;;;;;10.17;64.90;101090.95;1461519;89;21361;-83
2023/04/28 06:42:48;;;;;;;14.07;8.17;;;;;;;10.30;64.32;101085.52;1461555;89;21993;-82
2023/04/28 06:45:14;;;;;;;12.70;6.57;;;;;;;10.41;63.23;101090.38;1451423;89;21358;-82
2023/04/28 06:47:41;;;;;;;17.23;9.57;;;;;;;10.54;62.39;101083.08;1460796;89;21509;-82
2023/04/28 06:50:08;;;;;;;14.77;7.90;;;;;;;10.66;61.76;101082.50;1459702;89;22433;-82
2023/04/28 06:52:37;;;;;;;14.40;7.30;;;;;;;10.79;61.49;101072.05;1443776;89;21524;-81
2023/04/28 06:55:08;;;;;;;15.37;6.13;;;;;;;10.95;60.84;101081.30;1436719;91;22277;-82
2023/04/28 06:57:36;;;;;;;16.42;6.92;;;;;;;11.11;60.19;101082.96;1441397;91;22425;-82
2023/04/28 07:00:05;;;;;;;12.37;6.67;;;;;;;11.20;56.41;101082.64;1391575;92;21456;-82
2023/04/28 07:02:31;;;;;;;11.63;6.20;;;;;;;11.32;58.44;101091.31;1393821;92;21539;-81
2023/04/28 07:04:57;;;;;;;12.93;7.43;;;;;;;11.46;58.21;101088.27;1408088;92;21472;-82
2023/04/28 07:07:23;;;;;;;14.30;7.10;;;;;;;11.57;56.94;101083.34;1423551;90;22359;-82
2023/04/28 07:09:52;;;;;;;14.93;6.60;;;;;;;11.64;52.66;101088.42;1417366;91;21310;-82
2023/04/28 07:12:18;;;;;;;10.37;6.10;;;;;;;11.62;54.63;101084.57;1415035;92;22345;-82
2023/04/28 07:14:44;;;;;;;11.27;6.20;;;;;;;11.71;53.22;101081.11;1432073;91;21310;-82
2023/04/28 07:17:10;;;;;;;7.23;4.47;;;;;;;11.77;54.10;101085.02;1427924;91;21413;-83
2023/04/28 07:19:37;;;;;;;11.53;5.90;;;;;;;11.83;51.08;101083.14;1428484;91;22533;-82
2023/04/28 07:22:03;;;;;;;8.70;5.07;;;;;;;11.98;53.56;101078.27;1411862;92;22397;-83
2023/04/28 07:24:29;;;;;;;11.17;4.47;;;;;;;12.04;51.07;101077.70;1412393;90;21436;-81
2023/04/28 07:26:56;;;;;;;9.03;4.97;;;;;;;12.14;51.32;101074.56;1444264;89;21420;-82
2023/04/28 07:29:23;;;;;;;9.10;5.13;;;;;;;12.27;50.11;101070.76;1462060;89;21518;-82
2023/04/28 07:31:49;;;;;;;9.77;4.17;;;;;;;12.40;50.21;101072.62;1461513;89;21517;-82
2023/04/28 07:34:16;;;;;;;9.57;4.60;;;;;;;12.56;50.63;101068.03;1462841;89;22307;-82
2023/04/28 07:36:42;;;;;;;8.37;4.63;;;;;;;12.70;49.12;101070.70;1460291;89;21464;-82
2023/04/28 07:39:08;;;;;;;10.73;4.90;;;;;;;12.78;45.40;101061.52;1461979;89;21538;-81
2023/04/28 07:41:38;;;;;;;9.00;4.37;;;;;;;12.91;48.57;101063.33;1466601;89;21442;-83
2023/04/28 07:44:07;;;;;;;10.67;5.80;;;;;;;13.04;46.78;101067.82;1458236;89;21567;-83
2023/04/28 07:46:34;;;;;;;10.60;4.77;;;;;;;13.17;47.83;101063.97;1444981;89;22441;-82
2023/04/28 07:49:01;;;;;;;10.20;4.87;;;;;;;13.22;47.17;101061.70;1463531;89;21450;-82
2023/04/28 07:51:27;;;;;;;16.37;6.37;;;;;;;13.35;44.99;101060.03;1462457;89;22305;-82
2023/04/28 07:53:53;;;;;;;10.97;4.73;;;;;;;13.34;45.77;101058.38;1460103;89;21435;-82
2023/04/28 07:56:20;;;;;;;14.33;5.87;;;;;;;13.42;43.86;101057.97;1460982;89;21873;-82
2023/04/28 07:58:47;;;;;;;11.07;5.07;;;;;;;13.40;44.93;101054.61;1457386;89;21360;-82
2023/04/28 08:01:13;;;;;;;8.47;4.30;;;;;;;13.43;45.10;101054.30;1458678;89;21429;-82
2023/04/28 08:03:39;;;;;;;10.27;4.80;;;;;;;13.35;42.20;101055.58;1428824;91;22516;-83
2023/04/28 08:06:06;;;;;;;12.97;5.40;;;;;;;13.46;44.50;101056.66;1415232;91;21422;-82
2023/04/28 08:08:32;;;;;;;8.27;4.03;;;;;;;13.57;43.75;101053.45;1431731;91;21569;-82
2023/04/28 08:10:58;;;;;;;9.17;4.93;;;;;;;13.67;43.24;101047.58;1431436;91;22396;-81
2023/04/28 08:13:25;;;;;;;11.03;4.77;;;;;;;13.84;43.68;101048.05;1427498;91;21473;-83
2023/04/28 08:15:52;;;;;;;14.03;5.07;;;;;;;13.98;43.41;101046.17;1428998;91;21421;-82
2023/04/28 08:18:18;;;;;;;11.87;4.47;;;;;;;14.15;43.93;101034.30;1434276;91;21451;-83
2023/04/28 08:20:44;;;;;;;9.83;5.27;;;;;;;14.04;41.09;101027.89;1422073;91;21907;-80
2023/04/28 08:23:11;;;;;;;6.70;3.93;;;;;;;14.10;42.74;101037.94;1453759;89;21491;-82
2023/04/28 08:25:37;;;;;;;10.03;4.00;;;;;;;14.17;42.32;101034.48;1457946;89;23416;-82
2023/04/28 08:28:05;;;;;;;9.30;4.17;;;;;;;14.32;40.03;101034.73;1462568;89;21529;-83
2023/04/28 08:30:32;;;;;;;6.87;4.00;;;;;;;14.44;40.04;101033.50;1448922;89;21380;-83
2023/04/28 08:32:58;;;;;;;11.00;5.27;;;;;;;14.57;40.40;101030.42;1426385;90;21395;-81
2023/04/28 08:35:25;;;;;;;6.70;4.73;;;;;;;14.75;40.15;101022.34;1435755;89;21616;-82
2023/04/28 08:37:52;;;;;;;7.07;4.10;;;;;;;14.89;39.78;101022.23;1443734;90;21551;-83
2023/04/28 08:40:18;;;;;;;7.07;3.70;;;;;;;15.00;39.68;101030.44;1445870;90;21446;-82
2023/04/28 08:42:46;;;;;;;7.63;3.73;;;;;;;15.11;38.96;101026.14;1439622;90;21373;-81
2023/04/28 08:45:14;;;;;;;5.80;3.40;;;;;;;15.29;39.42;101025.50;1432745;90;21595;-82
2023/04/28 08:47:44;;;;;;;6.10;3.17;;;;;;;15.44;38.39;101024.86;1436942;90;21402;-83
2023/04/28 08:50:11;;;;;;;9.43;3.20;;;;;;;15.40;37.13;101018.20;1442893;90;21423;-81
2023/04/28 08:52:40;;;;;;;7.87;3.67;;;;;;;15.45;37.49;101017.19;1429825;90;21617;-83
2023/04/28 08:55:10;;;;;;;6.37;3.17;;;;;;;15.40;36.50;101015.53;1447011;90;21387;-83
2023/04/28 08:57:47;;;;;;;11.15;3.47;;;;;;;15.46;37.34;101010.36;1443209;89;21491;-83
2023/04/28 09:00:14;;;;;;;8.77;3.80;;;;;;;15.64;37.69;101004.04;1443034;90;22135;-83
2023/04/28 09:02:41;;;;;;;8.30;4.23;;;;;;;15.56;35.08;101011.53;1445118;90;21917;-82
2023/04/28 09:05:09;;;;;;;7.67;3.60;;;;;;;15.55;35.41;101008.53;1443108;90;22409;-83
2023/04/28 09:07:35;;;;;;;6.57;3.00;;;;;;;15.53;36.23;101011.86;1427063;90;21454;-83
2023/04/28 09:10:23;;;;;;;7.17;3.47;;;;;;;15.72;36.38;101008.91;1446324;90;22253;-82
2023/04/28 09:12:55;;;;;;;9.30;3.87;;;;;;;15.93;36.06;101006.22;1443956;90;21513;-82
2023/04/28 09:15:35;;;;;;;12.40;4.00;;;;;;;16.11;35.81;100998.02;1435429;89;21395;-80
2023/04/28 09:18:04;;;;;;;12.63;4.60;;;;;;;16.35;35.66;100995.80;1455526;89;21468;-82
2023/04/28 09:20:32;;;;;;;11.83;3.93;;;;;;;16.43;35.15;100998.45;1444565;90;22304;-82
2023/04/28 09:23:20;;;;;;;5.83;3.10;;;;;;;16.09;34.46;100996.03;1442704;90;21388;-82
2023/04/28 09:26:06;;;;;;;7.87;3.90;;;;;;;15.83;35.13;100997.06;1445191;89;21956;-80
2023/04/28 09:28:35;;;;;;;11.07;5.40;;;;;;;15.53;35.60;100989.19;1449687;89;21458;-81
2023/04/28 09:31:02;;;;;;;10.10;4.90;;;;;;;15.68;36.59;100989.37;1439787;90;21418;-79
2023/04/28 09:33:30;;;;;;;6.30;4.00;;;;;;;15.93;35.96;100986.20;1443674;90;21335;-82
2023/04/28 09:35:56;;;;;;;10.60;4.17;;;;;;;16.07;36.11;100980.17;1438156;89;21388;-81
2023/04/28 09:38:23;;;;;;;7.80;4.57;;;;;;;15.90;35.77;100978.03;1442711;90;21668;-82
2023/04/28 09:40:59;;;;;;;12.53;4.73;;;;;;;15.72;36.00;100983.55;1451628;89;21401;-81
2023/04/28 09:43:34;;;;;;;6.00;3.97;;;;;;;15.56;36.17;100980.84;1449609;90;21468;-82
2023/04/28 09:46:04;;;;;;;10.87;4.33;;;;;;;15.42;35.85;100984.17;1437358;89;21372;-80
2023/04/28 09:48:36;;;;;;;7.87;3.35;;;;;;;15.23;35.78;100966.67;1446444;90;22007;-80
2023/04/28 09:51:06;;;;;;;7.63;3.90;;;;;;;15.11;36.36;100970.98;1438431;90;21440;-82
2023/04/28 09:53:34;;;;;;;7.23;3.40;;;;;;;14.92;36.77;100963.77;1437125;89;21387;-81
2023/04/28 09:56:04;;;;;;;5.33;3.00;;;;;;;14.83;36.01;100960.25;1446736;90;21514;-80
2023/04/28 09:58:33;;;;;;;8.40;3.93;;;;;;;14.98;36.81;100957.79;1447327;90;22428;-82
2023/04/28 10:01:00;;;;;;;11.77;5.83;;;;;;;15.47;37.35;100955.17;1447861;89;22297;-82
2023/04/28 10:03:29;;;;;;;4.93;2.80;;;;;;;16.08;37.23;100956.46;1449064;90;21380;-82
2023/04/28 10:05:57;;;;;;;11.43;3.43;;;;;;;16.73;36.77;100941.20;1441406;90;21366;-80
2023/04/28 10:08:25;;;;;;;7.20;3.70;;;;;;;17.17;33.78;100934.76;1449621;90;23466;-82
2023/04/28 10:10:53;;;;;;;8.70;4.73;;;;;;;17.47;34.15;100935.70;1424078;90;21602;-82
2023/04/28 10:13:21;;;;;;;8.50;4.40;;;;;;;17.57;33.53;100936.27;1441698;90;21380;-80
2023/04/28 10:15:49;;;;;;;7.47;4.03;;;;;;;17.38;32.81;100935.45;1442285;90;21491;-82
2023/04/28 10:18:17;;;;;;;14.13;5.00;;;;;;;17.31;32.84;100923.80;1444907;90;22430;-81
2023/04/28 10:20:47;;;;;;;6.97;3.87;;;;;;;16.91;32.60;100931.09;1446740;89;21402;-79
2023/04/28 10:23:39;;;;;;;7.00;3.10;;;;;;;16.73;33.64;100927.33;1445793;90;21462;-82
2023/04/28 10:26:11;;;;;;;6.10;3.93;;;;;;;16.57;33.42;100924.26;1446903;89;22165;-81
2023/04/28 10:28:46;;;;;;;6.70;2.87;;;;;;;16.50;33.27;100919.27;1445423;90;21418;-82
2023/04/28 10:31:16;;;;;;;5.33;3.07;;;;;;;16.61;33.62;100918.05;1453654;90;21414;-79
2023/04/28 10:33:43;;;;;;;12.90;3.85;;;;;;;16.83;33.81;100921.30;1443985;90;22007;-80
2023/04/28 10:36:10;;;;;;;6.30;3.07;;;;;;;17.20;34.20;100910.84;1417374;92;21334;-84
2023/04/28 10:39:01;;;;;;;8.30;3.20;;;;;;;17.56;31.87;100908.37;1404816;93;21488;-83
2023/04/28 10:41:33;;;;;;;7.25;3.75;;;;;;;17.62;32.15;100908.97;1445706;90;22410;-84
2023/04/28 10:43:59;;;;;;;6.40;3.13;;;;;;;17.84;32.12;100908.63;1421739;92;22396;-84
2023/04/28 10:46:26;;;;;;;9.20;3.60;;;;;;;18.06;31.28;100912.73;1397678;93;21415;-83
2023/04/28 10:48:53;;;;;;;7.07;3.30;;;;;;;18.23;31.19;100902.98;1396696;93;21393;-83
2023/04/28 10:51:23;;;;;;;8.13;3.60;;;;;;;18.50;32.19;100897.97;1434365;90;21535;-83
2023/04/28 10:53:55;;;;;;;5.08;3.47;;;;;;;18.63;30.84;100894.59;1428784;91;21423;-82
2023/04/28 10:56:24;;;;;;;10.88;3.25;;;;;;;18.87;31.33;100894.77;1423067;91;22213;-85
2023/04/28 10:58:53;;;;;;;13.05;3.98;;;;;;;19.12;31.56;100894.72;1428002;91;21311;-83
2023/04/28 11:01:24;;;;;;;5.97;3.83;;;;;;;19.05;29.77;100887.66;1422941;91;21378;-83
2023/04/28 11:03:59;;;;;;;;;;;;;;;18.61;30.76;100885.91;1428292;91;21459;-83
2023/04/28 11:06:34;;;;;;;4.47;3.17;;;;;;;18.30;30.96;100892.36;1435495;88;20339;-83
2023/04/28 11:09:19;;;;;;;8.23;4.03;;;;;;;18.04;31.96;100879.46;1444528;89;21460;-84
2023/04/28 11:12:09;;;;;;;6.17;3.65;;;;;;;17.92;32.15;100888.44;1446595;89;21451;-80
2023/04/28 11:14:35;;;;;;;10.55;3.87;;;;;;;17.51;31.62;100876.78;1443897;89;21400;-79
2023/04/28 11:17:06;;;;;;;9.13;3.70;;;;;;;17.01;31.92;100876.07;1447752;89;21504;-81
2023/04/28 11:19:39;;;;;;;7.70;3.63;;;;;;;16.62;32.16;100869.76;1445890;89;21874;-83
2023/04/28 11:22:15;;;;;;;9.37;4.90;;;;;;;16.60;33.23;100869.12;1446541;90;21525;-83
2023/04/28 11:25:01;;;;;;;7.83;3.53;;;;;;;16.63;33.33;100867.44;1443107;89;21873;-84
2023/04/28 11:27:30;;;;;;;15.10;3.30;;;;;;;16.88;32.94;100869.96;1445885;89;21378;-84
2023/04/28 11:29:57;;;;;;;5.17;3.13;;;;;;;17.02;33.18;100867.85;1510128;90;21536;-84